createdAt,value
2019-01-28T00:04:20.207Z,81.63
2019-01-28T00:07:09.000Z,81.67
2019-01-28T00:09:57.883Z,81.99
2019-01-28T00:12:46.738Z,83.09
2019-01-28T00:17:48.712Z,83.51
2019-01-28T00:20:37.501Z,82.59
2019-01-28T00:23:26.305Z,82.15
2019-01-28T00:26:15.103Z,81.77
2019-01-28T00:32:32.662Z,82.30
2019-01-28T00:35:21.521Z,82.29
2019-01-28T00:38:10.336Z,82.37
2019-01-28T00:40:59.143Z,82.29
2019-01-28T00:43:41.021Z,81.92
2019-01-28T00:46:29.827Z,81.51
2019-01-28T00:49:18.618Z,81.48
2019-01-28T00:55:01.826Z,81.93
2019-01-28T00:57:50.632Z,81.64
2019-01-28T01:00:39.487Z,81.18
2019-01-28T01:03:28.305Z,81.20
2019-01-28T01:09:24.907Z,81.27
2019-01-28T01:12:13.696Z,80.96
2019-01-28T01:15:02.505Z,81.48
2019-01-28T01:17:51.294Z,82.09
2019-01-28T01:20:40.098Z,82.41
2019-01-28T01:23:28.886Z,82.29
2019-01-28T01:26:17.693Z,82.44
2019-01-28T01:29:06.493Z,83.04
2019-01-28T01:31:55.280Z,82.97
2019-01-28T01:34:44.082Z,83.57
2019-01-28T01:37:32.879Z,83.94
2019-01-28T01:40:21.693Z,83.80
2019-01-28T01:43:10.473Z,84.09
2019-01-28T01:45:51.757Z,83.88
2019-01-28T01:48:40.552Z,84.79
2019-01-28T01:51:29.372Z,84.41
2019-01-28T01:54:18.148Z,85.08
2019-01-28T01:57:06.963Z,84.37
2019-01-28T01:59:55.747Z,84.50
2019-01-28T02:02:44.557Z,84.45
2019-01-28T02:05:33.356Z,85.12
2019-01-28T02:08:22.160Z,84.69
2019-01-28T02:11:10.951Z,85.27
2019-01-28T02:13:59.755Z,85.22
2019-01-28T02:16:48.563Z,84.20
2019-01-28T02:19:37.349Z,84.78
2019-01-28T02:22:26.157Z,85.43
2019-01-28T02:25:34.705Z,85.26
2019-01-28T02:28:23.486Z,85.95
2019-01-28T02:31:12.291Z,85.92
2019-01-28T02:34:01.078Z,86.40
2019-01-28T02:36:49.903Z,85.86
2019-01-28T02:39:38.702Z,85.85
2019-01-28T02:42:27.499Z,85.74
2019-01-28T02:45:10.062Z,85.88
2019-01-28T02:47:58.855Z,85.56
2019-01-28T02:50:47.658Z,85.61
2019-01-28T02:53:36.452Z,84.80
2019-01-28T02:56:44.628Z,84.90
2019-01-28T02:59:33.406Z,84.58
2019-01-28T03:02:22.207Z,84.40
2019-01-28T03:05:11.079Z,84.05
2019-01-28T03:07:59.872Z,84.43
2019-01-28T03:10:48.680Z,84.79
2019-01-28T03:13:37.468Z,84.79
2019-01-28T03:16:26.272Z,84.94
2019-01-28T03:19:15.078Z,84.98
2019-01-28T03:22:03.865Z,85.21
2019-01-28T03:28:05.703Z,85.74
2019-01-28T03:30:54.521Z,85.39
2019-01-28T03:33:43.311Z,85.48
2019-01-28T03:36:32.095Z,84.98
2019-01-28T03:39:20.929Z,85.02
2019-01-28T03:42:09.879Z,84.60
2019-01-28T03:44:51.379Z,84.88
2019-01-28T03:47:40.192Z,84.84
2019-01-28T03:50:28.993Z,85.10
2019-01-28T03:53:17.779Z,84.98
2019-01-28T03:56:06.828Z,85.00
2019-01-28T03:58:55.618Z,84.68
2019-01-28T04:01:44.509Z,84.44
2019-01-28T04:04:33.305Z,85.10
2019-01-28T04:07:22.131Z,84.44
2019-01-28T04:10:30.236Z,83.92
2019-01-28T04:13:19.043Z,84.22
2019-01-28T04:16:07.899Z,84.25
2019-01-28T04:18:56.708Z,84.12
2019-01-28T04:21:45.489Z,84.78
2019-01-28T04:24:34.295Z,84.56
2019-01-28T04:27:23.094Z,85.33
2019-01-28T04:30:31.478Z,84.89
2019-01-28T04:33:20.330Z,85.15
2019-01-28T04:36:09.130Z,85.82
2019-01-28T04:38:57.920Z,85.70
2019-01-28T04:41:46.719Z,85.54
2019-01-28T04:44:35.535Z,85.18
2019-01-28T04:47:17.416Z,85.11
2019-01-28T04:50:27.114Z,85.16
2019-01-28T04:53:15.912Z,85.35
2019-01-28T04:56:04.776Z,85.60
2019-01-28T04:58:53.575Z,85.42
2019-01-28T05:01:42.365Z,85.75
2019-01-28T05:04:31.164Z,85.42
2019-01-28T05:07:19.946Z,85.47
2019-01-28T05:10:29.660Z,85.52
2019-01-28T05:13:18.453Z,85.21
2019-01-28T05:16:07.521Z,85.18
2019-01-28T05:18:56.309Z,84.90
2019-01-28T05:21:45.111Z,85.03
2019-01-28T05:24:33.915Z,85.11
2019-01-28T05:27:22.723Z,85.22
2019-01-28T05:30:32.426Z,85.06
2019-01-28T05:33:21.230Z,84.51
2019-01-28T05:36:10.014Z,84.35
2019-01-28T05:38:58.820Z,83.71
2019-01-28T05:41:47.596Z,84.08
2019-01-28T05:44:36.402Z,84.82
2019-01-28T05:47:25.188Z,84.35
2019-01-28T05:50:34.898Z,84.83
2019-01-28T05:53:23.697Z,84.52
2019-01-28T05:56:12.491Z,84.74
2019-01-28T05:59:01.570Z,84.91
2019-01-28T06:01:50.375Z,84.94
2019-01-28T06:04:39.183Z,85.53
2019-01-28T06:07:27.970Z,85.50
2019-01-28T06:10:17.045Z,84.93
2019-01-28T06:13:05.898Z,84.98
2019-01-28T06:15:54.705Z,85.01
2019-01-28T06:18:43.512Z,85.58
2019-01-28T06:21:32.298Z,85.11
2019-01-28T06:24:21.107Z,84.97
2019-01-28T06:27:09.919Z,84.95
2019-01-28T06:29:58.696Z,84.46
2019-01-28T06:32:47.488Z,84.11
2019-01-28T06:35:36.294Z,84.26
2019-01-28T06:38:25.070Z,84.66
2019-01-28T06:41:13.892Z,85.54
2019-01-28T06:43:55.726Z,84.75
2019-01-28T06:46:44.523Z,84.57
2019-01-28T06:49:33.328Z,83.90
2019-01-28T06:52:22.116Z,84.21
2019-01-28T06:55:11.402Z,85.13
2019-01-28T06:58:00.190Z,84.74
2019-01-28T07:00:48.999Z,85.25
2019-01-28T07:03:37.803Z,85.43
2019-01-28T07:06:26.589Z,85.27
2019-01-28T07:09:15.394Z,85.13
2019-01-28T07:12:04.249Z,84.81
2019-01-28T07:17:54.719Z,84.89
2019-01-28T07:20:38.411Z,84.82
2019-01-28T07:23:27.201Z,84.87
2019-01-28T07:26:16.003Z,84.59
2019-01-28T07:29:04.790Z,84.69
2019-01-28T07:31:53.590Z,84.62
2019-01-28T07:34:42.378Z,84.79
2019-01-28T07:37:31.179Z,84.54
2019-01-28T07:40:13.794Z,83.97
2019-01-28T07:43:02.581Z,83.57
2019-01-28T07:45:51.379Z,83.94
2019-01-28T07:48:40.182Z,84.03
2019-01-28T07:51:28.967Z,83.95
2019-01-28T07:54:17.768Z,84.23
2019-01-28T07:57:06.584Z,83.68
2019-01-28T07:59:55.353Z,83.10
2019-01-28T08:02:44.138Z,83.52
2019-01-28T08:05:33.012Z,83.29
2019-01-28T08:08:21.816Z,83.14
2019-01-28T08:11:10.595Z,83.42
2019-01-28T08:13:59.392Z,83.51
2019-01-28T08:17:07.212Z,83.41
2019-01-28T08:19:56.013Z,84.21
2019-01-28T08:23:03.900Z,84.06
2019-01-28T08:25:52.710Z,83.92
2019-01-28T08:28:41.494Z,84.11
2019-01-28T08:31:30.291Z,83.85
2019-01-28T08:34:19.100Z,83.58
2019-01-28T08:37:07.888Z,83.91
2019-01-28T08:39:56.690Z,83.58
2019-01-28T08:42:45.571Z,83.79
2019-01-28T08:45:34.669Z,84.11
2019-01-28T08:48:23.474Z,84.00
2019-01-28T08:51:31.280Z,83.84
2019-01-28T08:54:20.090Z,84.05
2019-01-28T08:57:08.887Z,83.72
2019-01-28T08:59:57.694Z,83.43
2019-01-28T09:02:46.558Z,83.21
2019-01-28T09:05:35.434Z,83.10
2019-01-28T09:11:32.046Z,83.01
2019-01-28T09:14:21.018Z,82.96
2019-01-28T09:17:09.804Z,82.60
2019-01-28T09:19:59.048Z,82.65
2019-01-28T09:22:49.130Z,82.43
2019-01-28T09:25:37.914Z,82.45
2019-01-28T09:28:26.723Z,82.88
2019-01-28T09:31:15.502Z,82.77
2019-01-28T09:34:23.399Z,82.64
2019-01-28T09:37:12.184Z,82.59
2019-01-28T09:40:00.987Z,81.50
2019-01-28T09:42:49.841Z,81.07
2019-01-28T09:45:57.964Z,80.81
2019-01-28T09:48:46.777Z,80.58
2019-01-28T09:51:35.559Z,80.47
2019-01-28T09:54:24.368Z,80.85
2019-01-28T09:57:13.158Z,80.86
2019-01-28T10:00:02.037Z,80.91
2019-01-28T10:02:50.822Z,81.51
2019-01-28T10:05:39.686Z,81.80
2019-01-28T10:08:28.476Z,81.43
2019-01-28T10:11:17.269Z,82.46
2019-01-28T10:14:06.127Z,82.07
2019-01-28T10:16:54.921Z,82.70
2019-01-28T10:19:43.706Z,82.61
2019-01-28T10:22:51.531Z,82.60
2019-01-28T10:25:40.656Z,82.03
2019-01-28T10:28:29.534Z,81.80
2019-01-28T10:31:18.340Z,81.73
2019-01-28T10:34:07.152Z,82.56
2019-01-28T10:36:55.929Z,82.57
2019-01-28T10:39:44.732Z,82.36
2019-01-28T10:42:28.521Z,82.67
2019-01-28T10:45:17.589Z,81.74
2019-01-28T10:51:35.161Z,81.81
2019-01-28T10:54:23.953Z,81.72
2019-01-28T10:57:12.750Z,82.00
2019-01-28T11:00:01.568Z,82.34
2019-01-28T11:06:05.639Z,82.70
2019-01-28T11:08:54.377Z,83.25
2019-01-28T11:11:43.201Z,83.57
2019-01-28T11:14:31.980Z,82.50
2019-01-28T11:17:20.977Z,82.12
2019-01-28T11:20:30.840Z,82.04
2019-01-28T11:26:36.279Z,81.67
2019-01-28T11:29:25.207Z,81.45
2019-01-28T11:35:42.520Z,82.52
2019-01-28T11:38:31.403Z,82.53
2019-01-28T11:41:20.302Z,82.94
2019-01-28T11:44:10.804Z,82.56
2019-01-28T11:47:01.297Z,83.42
2019-01-28T11:49:50.177Z,84.24
2019-01-28T11:52:38.965Z,83.19
2019-01-28T11:55:27.741Z,84.18
2019-01-28T11:58:16.903Z,83.58
2019-01-28T12:01:24.890Z,84.38
2019-01-28T12:04:13.739Z,83.51
2019-01-28T12:07:02.646Z,83.62
2019-01-28T12:09:51.515Z,83.32
2019-01-28T12:12:40.342Z,83.19
2019-01-28T12:15:29.295Z,82.79
2019-01-28T12:18:37.169Z,82.43
2019-01-28T12:21:26.241Z,81.92
2019-01-28T12:24:15.029Z,81.23
2019-01-28T12:27:03.848Z,81.68
2019-01-28T12:29:52.650Z,81.67
2019-01-28T12:32:41.460Z,80.56
2019-01-28T12:35:30.268Z,79.90
2019-01-28T12:38:19.055Z,81.83
2019-01-28T12:41:07.847Z,82.72
2019-01-28T12:43:49.343Z,82.01
2019-01-28T12:46:57.173Z,81.33
2019-01-28T12:49:45.965Z,81.98
2019-01-28T12:52:34.843Z,80.49
2019-01-28T12:58:52.723Z,78.63
2019-01-28T13:01:41.681Z,77.67
2019-01-28T13:04:30.495Z,77.59
2019-01-28T13:07:19.280Z,77.54
2019-01-28T13:10:28.991Z,80.82
2019-01-28T13:13:17.843Z,81.66
2019-01-28T13:16:25.812Z,82.34
2019-01-28T13:19:14.604Z,82.08
2019-01-28T13:22:03.483Z,79.89
2019-01-28T13:24:52.270Z,80.43
2019-01-28T13:27:41.202Z,79.39
2019-01-28T13:30:50.956Z,79.14
2019-01-28T13:33:39.837Z,78.98
2019-01-28T13:39:24.131Z,81.90
2019-01-28T13:42:32.572Z,86.17
2019-01-28T13:45:15.236Z,86.91
2019-01-28T13:51:19.092Z,85.10
2019-01-28T13:54:07.906Z,84.12
2019-01-28T13:56:56.692Z,83.66
2019-01-28T13:59:45.507Z,82.84
2019-01-28T14:02:34.804Z,82.98
2019-01-28T14:08:39.223Z,82.05
2019-01-28T14:11:28.028Z,81.61
2019-01-28T14:17:24.571Z,80.92
2019-01-28T14:20:33.852Z,80.77
2019-01-28T14:23:24.092Z,80.20
2019-01-28T14:26:13.169Z,80.44
2019-01-28T14:28:55.148Z,81.02
2019-01-28T14:31:43.931Z,80.22
2019-01-28T14:34:32.739Z,79.54
2019-01-28T14:37:21.533Z,78.85
2019-01-28T14:40:31.247Z,77.97
2019-01-28T14:43:20.086Z,78.12
2019-01-28T14:46:02.075Z,77.53
2019-01-28T14:48:50.873Z,78.25
2019-01-28T14:51:39.677Z,79.04
2019-01-28T14:54:28.476Z,78.04
2019-01-28T14:57:36.296Z,77.02
2019-01-28T15:00:46.008Z,76.94
2019-01-28T15:03:34.808Z,76.99
2019-01-28T15:06:23.906Z,75.60
2019-01-28T15:09:12.762Z,75.92
2019-01-28T15:14:55.698Z,74.26
2019-01-28T15:17:44.482Z,74.49
2019-01-28T15:20:33.289Z,76.92
2019-01-28T15:23:22.068Z,78.14
2019-01-28T15:26:10.896Z,78.05
2019-01-28T15:28:52.857Z,78.06
2019-01-28T15:31:41.664Z,78.61
2019-01-28T15:34:30.507Z,78.26
2019-01-28T15:37:19.352Z,78.38
2019-01-28T15:40:29.065Z,76.86
2019-01-28T15:43:17.847Z,78.57
2019-01-28T15:46:06.663Z,79.14
2019-01-28T15:48:55.445Z,79.49
2019-01-28T15:52:03.282Z,80.54
2019-01-28T15:54:52.075Z,80.55
2019-01-28T15:57:41.175Z,80.92
2019-01-28T16:00:49.272Z,82.54
2019-01-28T16:03:38.173Z,82.26
2019-01-28T16:06:26.943Z,82.48
2019-01-28T16:09:15.748Z,82.63
2019-01-28T16:12:04.623Z,82.06
2019-01-28T16:14:53.415Z,82.46
2019-01-28T16:17:42.210Z,81.69
2019-01-28T16:20:30.994Z,80.87
2019-01-28T16:23:19.801Z,82.18
2019-01-28T16:26:08.578Z,81.95
2019-01-28T16:28:57.399Z,81.63
2019-01-28T16:31:39.213Z,81.97
2019-01-28T16:37:22.724Z,82.07
2019-01-28T16:40:32.446Z,82.60
2019-01-28T16:43:21.253Z,82.87
2019-01-28T16:46:29.092Z,81.83
2019-01-28T16:49:17.926Z,81.84
2019-01-28T16:52:06.877Z,82.32
2019-01-28T16:54:55.749Z,82.00
2019-01-28T16:57:44.707Z,83.09
2019-01-28T17:00:54.446Z,82.11
2019-01-28T17:03:43.247Z,82.14
2019-01-28T17:06:32.065Z,82.42
2019-01-28T17:09:20.873Z,82.71
2019-01-28T17:12:09.696Z,82.66
2019-01-28T17:14:58.506Z,82.41
2019-01-28T17:17:47.338Z,82.96
2019-01-28T17:20:36.145Z,83.74
2019-01-28T17:23:24.962Z,83.45
2019-01-28T17:26:13.786Z,86.20
2019-01-28T17:29:02.621Z,85.29
2019-01-28T17:31:51.466Z,85.67
2019-01-28T17:34:40.269Z,85.40
2019-01-28T17:37:29.139Z,85.75
2019-01-28T17:40:38.869Z,85.45
2019-01-28T17:43:27.715Z,85.68
2019-01-28T17:46:16.554Z,84.70
2019-01-28T17:49:05.445Z,83.94
2019-01-28T17:51:54.235Z,84.03
2019-01-28T17:54:43.063Z,83.44
2019-01-28T17:57:31.863Z,83.93
2019-01-28T18:03:37.257Z,83.95
2019-01-28T18:06:26.050Z,83.53
2019-01-28T18:09:14.874Z,83.44
2019-01-28T18:12:03.691Z,82.60
2019-01-28T18:14:52.514Z,81.74
2019-01-28T18:17:41.342Z,82.33
2019-01-28T18:20:30.136Z,81.86
2019-01-28T18:26:07.955Z,82.78
2019-01-28T18:28:56.768Z,81.76
2019-01-28T18:31:45.616Z,81.49
2019-01-28T18:34:34.412Z,80.98
2019-01-28T18:37:23.192Z,80.82
2019-01-28T18:40:32.929Z,79.98
2019-01-28T18:43:21.713Z,80.42
2019-01-28T18:46:10.512Z,80.93
2019-01-28T18:48:59.303Z,81.55
2019-01-28T18:51:48.103Z,81.45
2019-01-28T18:54:36.901Z,81.72
2019-01-28T18:57:26.025Z,81.85
2019-01-28T19:00:34.769Z,81.40
2019-01-28T19:03:23.560Z,80.52
2019-01-28T19:12:36.625Z,80.64
2019-01-28T19:24:16.523Z,80.57
2019-01-28T19:26:58.757Z,79.43
2019-01-28T19:29:48.279Z,80.27
2019-01-28T19:32:37.355Z,80.27
2019-01-28T19:35:26.793Z,80.24
2019-01-28T19:41:23.857Z,80.52
2019-01-28T19:44:12.858Z,78.74
2019-01-28T19:47:02.214Z,78.42
2019-01-28T19:50:12.085Z,78.51
2019-01-28T19:56:16.315Z,77.59
2019-01-28T19:59:24.673Z,76.63
2019-01-28T20:09:15.839Z,74.29
2019-01-28T20:12:14.482Z,73.77
2019-01-28T20:18:19.520Z,73.60
2019-01-28T20:27:58.674Z,73.33
2019-01-28T20:34:43.273Z,72.82
2019-01-28T20:38:00.234Z,72.99
2019-01-28T20:40:58.790Z,72.92
2019-01-28T20:44:08.009Z,72.93
2019-01-28T20:50:49.830Z,71.91
2019-01-28T20:53:58.077Z,72.04
2019-01-28T21:00:26.732Z,71.91
2019-01-28T21:06:19.189Z,72.01
2019-01-28T21:12:30.501Z,71.14
2019-01-28T21:18:48.735Z,71.47
2019-01-28T21:21:41.915Z,71.94
2019-01-28T21:24:28.663Z,71.61
2019-01-28T21:27:17.608Z,71.22
2019-01-28T21:30:27.362Z,71.76
2019-01-28T21:33:16.157Z,71.03
2019-01-28T21:39:14.584Z,71.33
2019-01-28T21:42:03.369Z,73.59
2019-01-28T21:44:52.188Z,72.19
2019-01-28T21:50:50.386Z,71.13
2019-01-28T21:53:39.181Z,70.29
2019-01-28T21:56:27.982Z,70.46
2019-01-28T21:59:16.775Z,70.47
2019-01-28T22:01:58.589Z,70.36
2019-01-28T22:04:47.388Z,70.64
2019-01-28T22:07:36.657Z,71.48
2019-01-28T22:10:25.439Z,71.47
2019-01-28T22:13:14.294Z,71.85
2019-01-28T22:16:03.126Z,71.34
2019-01-28T22:18:51.944Z,71.96
2019-01-28T22:21:40.754Z,71.56
2019-01-28T22:24:29.543Z,72.42
2019-01-28T22:27:18.346Z,72.41
2019-01-28T22:30:28.052Z,72.76
2019-01-28T22:33:16.857Z,73.19
2019-01-28T22:36:05.810Z,73.08
2019-01-28T22:38:54.615Z,73.03
2019-01-28T22:41:43.400Z,72.86
2019-01-28T22:44:32.523Z,72.28
2019-01-28T22:47:21.306Z,72.30
2019-01-28T22:50:29.439Z,72.21
2019-01-28T22:53:18.239Z,72.41
2019-01-28T22:56:07.028Z,73.49
2019-01-28T22:58:55.853Z,72.71
2019-01-28T23:01:37.658Z,73.46
2019-01-28T23:04:26.463Z,73.39
2019-01-28T23:07:15.258Z,74.04
2019-01-28T23:10:24.968Z,74.32
2019-01-28T23:16:21.893Z,74.30
2019-01-28T23:19:10.674Z,75.30
2019-01-28T23:21:59.474Z,75.33
2019-01-28T23:24:48.265Z,75.23
2019-01-28T23:27:37.072Z,75.78
2019-01-28T23:30:25.861Z,75.46
2019-01-28T23:33:14.728Z,74.94
2019-01-28T23:36:03.516Z,74.94
2019-01-28T23:38:52.389Z,76.00
2019-01-28T23:41:41.281Z,75.58
2019-01-28T23:44:30.157Z,75.84
2019-01-28T23:47:18.939Z,75.92
2019-01-28T23:50:28.659Z,74.40
2019-01-28T23:53:17.448Z,73.94
2019-01-28T23:59:21.266Z,73.92
